Detalii statie BONGA [00001D00]

Toti senzorii

Date Temperatura solului [C]Precipitatii [mm]Voltaj baterie [mV]Leaf Wetness [Min]HC Air temperature [C]HC Relative humidity [%]Punctul de roua [C]
medieminmaxsumaultimatimpmedieminmaxmediemediemin
2018-06-20 10:00:00 24.4 23.7 25.1 0 7332 27.43 26.67 28.62 0 0 0
2018-06-20 11:00:00 25.6 25.2 26.1 0 7332 29.24 28.45 30.68 0 0 0
2018-06-20 12:00:00 26.4 26 26.8 0 7332 29.97 29.42 31.11 0 0 0
2018-06-20 13:00:00 26.3 26.2 26.6 0 7332 30.33 29.99 31.31 0 0 0
2018-06-20 14:00:00 26.5 26.4 26.8 0 7324 30.35 29.22 31.22 0 0 0
2018-06-20 15:00:00 27 27 27.2 0 7324 30.45 29.78 31.33 0 0 0
2018-06-20 16:00:00 27 27 27.2 0 7314 30.11 29.95 30.38 0 0 0
2018-06-20 17:00:00 26.5 26.2 27 0 7314 29.92 29.56 30.41 0 0 0
2018-06-20 18:00:00 25.5 25.2 26 0 7324 28.86 28.16 29.45 0 0 0
2018-06-20 19:00:00 24.9 24.7 25.2 0 7324 27.52 26.76 28.2 0 0 0
2018-06-20 20:00:00 24.5 24.3 24.9 0 6972 25.44 24.15 26.68 0 0 0
2018-06-20 21:00:00 23.9 23.7 24.2 0 6942 22.69 22.15 24.03 0 0 0
2018-06-20 22:00:00 23.5 23.2 23.8 0 6932 20.98 20.4 22.23 0 0 0
2018-06-20 23:00:00 23.1 22.9 23.3 0 6922 19.38 19.12 19.98 0 0 0
2018-06-21 00:00:00 22.7 22.6 22.9 0 6922 18.9 18.08 19.63 0 0 0
2018-06-21 01:00:00 22.6 22.5 22.8 0 6914 18.88 18.4 19.63 0 0 0
2018-06-21 02:00:00 22.7 22.6 22.9 0 6904 20.16 19.78 20.53 0 0 0
2018-06-21 03:00:00 22.5 22.3 22.7 0 6914 20.1 19.25 20.61 0 0 0
2018-06-21 04:00:00 22.1 21.9 22.4 0 6904 19 18.43 19.61 0 0 0
2018-06-21 05:00:00 22.1 22 22.3 0 6922 18.89 18.53 19.55 0 0 0
2018-06-21 06:00:00 22.3 22.3 22.5 0 7010 20.26 19.77 20.46 0 0 0
2018-06-21 07:00:00 22.4 22.3 22.6 0 7294 21.38 20.57 22.76 0 0 0
2018-06-21 08:00:00 22.9 22.6 23.2 0 7332 23.65 22.93 24.35 0 0 0
2018-06-21 09:00:00 23.5 23.2 23.9 0 7332 25.18 24.2 26.31 0 0 0
2018-06-21 10:00:00 24.3 23.9 24.9 0 7332 27.37 25.82 28.4 11.08 0
2018-06-21 11:00:00 25.3 24.9 25.7 0 7332 29.14 28.18 29.81 0 0 0
2018-06-21 12:00:00 26 25.7 26.4 0 7332 30.08 29.29 30.75 0 0 0
2018-06-21 13:00:00 26.4 26.4 26.6 0 7332 30.36 29.89 31.12 0 0 0
2018-06-21 14:00:00 26.9 26.6 27.2 0 7324 30.97 30.12 31.58 0 0 0
2018-06-21 15:00:00 27.2 27.1 27.4 0 7274 30.7 30.3 31.33 0 0 0
2018-06-21 16:00:00 27.4 27.3 27.5 0 7314 31.04 30.56 31.48 0 0 0
2018-06-21 17:00:00 27.2 27 27.4 0 7176 30.64 30.45 31.08 0 0 0
2018-06-21 18:00:00 26.6 26.4 27 0 7166 30.32 29.69 31.03 0 0 0
2018-06-21 19:00:00 26.3 26.1 26.6 0 7314 28.97 28.02 29.6 0 0 0
2018-06-21 20:00:00 25.8 25.4 26.1 0 6952 26.01 23.88 27.94 0 0 0
2018-06-21 21:00:00 25.3 25.2 25.5 0 6932 23.98 23.5 24.33 0 0 0
2018-06-21 22:00:00 24.8 24.4 25.2 0 6932 22.77 21.87 23.9 0 0 0
2018-06-21 23:00:00 24.4 24.1 24.7 0 6922 21.47 20.87 22.08 0 0 0
2018-06-22 00:00:00 24 23.8 24.6 0 6914 20.94 20.18 21.79 0 0 0
2018-06-22 01:00:00 23.7 23.6 23.9 0 6904 19.98 19.52 20.23 0 0 0
2018-06-22 02:00:00 23.2 23 23.7 0 6914 18.99 18.63 19.43 0 0 0
2018-06-22 03:00:00 22.7 22.4 23 0 6904 18.38 17.99 19.01 0 0 0
2018-06-22 04:00:00 22.3 22.2 22.6 0 6904 17.77 17.21 18.28 0 0 0
2018-06-22 05:00:00 22.3 22.1 22.5 0 6914 17.8 17.16 18.14 0 0 0
2018-06-22 06:00:00 22.5 22.4 22.6 0 7030 18.82 18.36 19.84 0 0 0
2018-06-22 07:00:00 22.8 22.6 23 0 7324 21.92 20.03 23.84 0 0 0
2018-06-22 08:00:00 23.1 22.9 23.5 0 7342 25.31 23.87 26.57 24.14 6.6 0
2018-06-22 09:00:00 23.8 23.4 24.1 0 7332 27.29 26.07 28.42 57.29 0